Webcam

Richtung Osten

METAR LOWZ 230530Z AUTO 30001KT 9999 FEW020 BKN069 BKN110 17/16 Q1022=

Richtung Westen

METAR LOWZ 230530Z AUTO 30001KT 9999 FEW020 BKN069 BKN110 17/16 Q1022=

Richtung Norden

METAR LOWZ 230530Z AUTO 30001KT 9999 FEW020 BKN069 BKN110 17/16 Q1022=